createdAt,value
2023-12-09T00:01:35.304Z,8.05
2023-12-09T00:06:39.197Z,7.68
2023-12-09T00:11:42.721Z,7.97
2023-12-09T00:16:47.485Z,7.55
2023-12-09T00:21:50.874Z,7.38
2023-12-09T00:26:54.341Z,7.10
2023-12-09T00:31:59.103Z,7.20
2023-12-09T00:37:02.477Z,7.18
2023-12-09T00:42:06.578Z,7.10
2023-12-09T00:47:11.690Z,6.80
2023-12-09T00:52:15.239Z,6.65
2023-12-09T00:57:18.674Z,6.45
2023-12-09T01:02:23.494Z,6.63
2023-12-09T01:07:26.908Z,6.65
2023-12-09T01:12:31.559Z,6.05
2023-12-09T01:17:36.391Z,6.30
2023-12-09T01:22:39.988Z,6.40
2023-12-09T01:27:43.495Z,6.40
2023-12-09T01:32:48.550Z,5.78
2023-12-09T01:37:52.074Z,6.40
2023-12-09T01:42:55.945Z,5.50
2023-12-09T01:48:02.623Z,5.80
2023-12-09T01:53:07.412Z,6.25
2023-12-09T01:58:11.810Z,5.78
2023-12-09T02:03:17.280Z,5.43
2023-12-09T02:08:20.703Z,5.30
2023-12-09T02:13:30.938Z,5.40
2023-12-09T02:18:37.630Z,5.50
2023-12-09T02:23:42.514Z,5.53
2023-12-09T02:28:55.083Z,5.47
2023-12-09T02:34:00.176Z,5.20
2023-12-09T02:39:05.966Z,5.25
2023-12-09T02:44:10.090Z,4.75
2023-12-09T02:49:13.712Z,5.10
2023-12-09T02:54:19.609Z,5.28
2023-12-09T02:59:23.031Z,4.88
2023-12-09T03:04:27.470Z,4.45
2023-12-09T03:09:32.292Z,4.75
2023-12-09T03:14:35.780Z,4.50
2023-12-09T03:19:39.456Z,4.30
2023-12-09T03:24:45.731Z,4.20
2023-12-09T03:29:49.201Z,4.68
2023-12-09T03:34:52.611Z,4.55
2023-12-09T03:39:57.439Z,3.88
2023-12-09T03:45:00.884Z,4.18
2023-12-09T03:50:04.647Z,4.32
2023-12-09T03:55:10.768Z,4.07
2023-12-09T04:00:16.344Z,3.88
2023-12-09T04:05:20.153Z,3.97
2023-12-09T04:10:25.011Z,3.42
2023-12-09T04:15:29.211Z,3.90
2023-12-09T04:20:32.848Z,3.53
2023-12-09T04:25:37.727Z,3.42
2023-12-09T04:30:41.192Z,3.40
2023-12-09T04:35:44.656Z,3.35
2023-12-09T04:40:49.399Z,3.72
2023-12-09T04:45:54.070Z,3.10
2023-12-09T04:50:57.536Z,3.22
2023-12-09T04:56:02.345Z,3.20
2023-12-09T05:01:05.934Z,2.97
2023-12-09T05:06:11.396Z,3.13
2023-12-09T05:11:16.378Z,3.08
2023-12-09T05:16:19.826Z,3.20
2023-12-09T05:21:23.357Z,3.10
2023-12-09T05:26:39.763Z,2.92
2023-12-09T05:31:43.620Z,2.80
2023-12-09T05:36:47.401Z,2.80
2023-12-09T05:41:52.195Z,2.97
2023-12-09T05:46:55.605Z,2.70
2023-12-09T05:51:59.064Z,2.50
2023-12-09T05:57:03.879Z,2.80
2023-12-09T06:02:07.702Z,2.50
2023-12-09T06:07:11.574Z,2.90
2023-12-09T06:12:16.351Z,2.70
2023-12-09T06:17:19.907Z,2.60
2023-12-09T06:22:23.299Z,2.80
2023-12-09T06:27:28.136Z,2.50
2023-12-09T06:32:31.649Z,2.50
2023-12-09T06:37:35.134Z,2.67
2023-12-09T06:42:39.944Z,2.70
2023-12-09T06:47:43.733Z,2.60
2023-12-09T06:52:47.160Z,2.78
2023-12-09T06:57:51.893Z,2.90
2023-12-09T07:02:59.484Z,2.63
2023-12-09T07:08:04.092Z,2.50
2023-12-09T07:13:08.847Z,2.30
2023-12-09T07:18:12.376Z,2.28
2023-12-09T07:23:16.121Z,2.58
2023-12-09T07:28:20.913Z,2.50
2023-12-09T07:33:24.799Z,2.40
2023-12-09T07:38:29.403Z,2.40
2023-12-09T07:43:35.250Z,2.17
2023-12-09T07:48:40.605Z,2.22
2023-12-09T07:53:44.089Z,2.30
2023-12-09T07:58:48.859Z,2.30
2023-12-09T08:03:52.341Z,2.17
2023-12-09T08:08:55.807Z,2.00
2023-12-09T08:14:00.680Z,2.15
2023-12-09T08:19:04.170Z,1.95
2023-12-09T08:24:08.864Z,1.95
2023-12-09T08:29:15.561Z,2.10
2023-12-09T08:34:19.216Z,2.17
2023-12-09T08:39:24.465Z,2.13
2023-12-09T08:44:29.296Z,2.00
2023-12-09T08:49:32.917Z,2.00
2023-12-09T08:54:36.446Z,1.90
2023-12-09T08:59:41.210Z,2.22
2023-12-09T09:04:44.685Z,2.00
2023-12-09T09:09:48.461Z,1.90
2023-12-09T09:14:53.246Z,1.80
2023-12-09T09:19:56.725Z,1.75
2023-12-09T09:25:00.491Z,1.70
2023-12-09T09:30:06.700Z,1.90
2023-12-09T09:35:11.100Z,1.60
2023-12-09T09:40:15.701Z,1.90
2023-12-09T09:45:30.353Z,1.88
2023-12-09T09:50:43.307Z,1.70
2023-12-09T09:55:48.934Z,1.90
2023-12-09T10:00:57.353Z,1.52
2023-12-09T10:06:01.708Z,1.77
2023-12-09T10:11:06.036Z,2.50
2023-12-09T10:16:11.100Z,3.80
2023-12-09T10:21:14.896Z,3.47
2023-12-09T10:26:18.638Z,3.50
2023-12-09T10:31:23.605Z,3.15
2023-12-09T10:36:27.139Z,2.85
2023-12-09T10:41:30.556Z,2.80
2023-12-09T10:46:38.453Z,2.50
2023-12-09T10:51:42.761Z,2.28
2023-12-09T10:56:46.422Z,2.40
2023-12-09T11:01:51.178Z,2.10
2023-12-09T11:06:59.028Z,12.32
2023-12-09T11:12:02.561Z,11.35
2023-12-09T11:17:37.190Z,7.88
2023-12-09T11:22:41.490Z,7.07
2023-12-09T11:27:45.050Z,6.88
2023-12-09T11:32:49.991Z,6.60
2023-12-09T11:37:54.315Z,4.70
2023-12-09T11:42:58.979Z,5.65
2023-12-09T11:48:05.603Z,5.30
2023-12-09T11:53:09.058Z,4.55
2023-12-09T11:58:12.495Z,4.38
2023-12-09T12:03:17.312Z,3.22
2023-12-09T12:09:29.084Z,3.70
2023-12-09T12:14:33.381Z,3.92
2023-12-09T12:19:39.303Z,3.95
2023-12-09T12:24:43.731Z,4.20
2023-12-09T12:29:48.440Z,3.75
2023-12-09T12:34:53.446Z,4.28
2023-12-09T12:39:57.332Z,3.80
2023-12-09T12:45:01.039Z,3.75
2023-12-09T12:50:07.384Z,3.78
2023-12-09T12:55:17.889Z,3.25
2023-12-09T13:00:22.310Z,3.42
2023-12-09T13:05:27.581Z,3.30
2023-12-09T13:10:31.140Z,3.50
2023-12-09T13:15:35.761Z,3.30
2023-12-09T13:20:42.849Z,3.20
2023-12-09T13:25:46.425Z,2.93
2023-12-09T13:30:50.300Z,2.92
2023-12-09T13:35:55.373Z,2.85
2023-12-09T13:40:58.973Z,2.80
2023-12-09T13:46:02.784Z,2.60
2023-12-09T13:51:09.893Z,2.58
2023-12-09T13:56:13.515Z,2.30
2023-12-09T14:01:17.165Z,2.10
2023-12-09T14:06:22.528Z,2.00
2023-12-09T14:11:28.224Z,2.38
2023-12-09T14:16:31.849Z,2.53
2023-12-09T14:21:36.798Z,2.30
2023-12-09T14:26:40.583Z,2.45
2023-12-09T14:31:44.308Z,2.10
2023-12-09T14:36:49.248Z,2.00
2023-12-09T14:41:52.732Z,2.03
2023-12-09T14:46:56.264Z,1.90
2023-12-09T14:52:01.200Z,1.95
2023-12-09T14:57:05.034Z,1.80
2023-12-09T15:02:08.787Z,1.83
2023-12-09T15:07:13.877Z,1.80
2023-12-09T15:12:17.540Z,2.13
2023-12-09T15:17:21.994Z,2.10
2023-12-09T15:22:28.057Z,2.00
2023-12-09T15:27:32.520Z,1.60
2023-12-09T15:32:36.444Z,1.50
2023-12-09T15:37:41.562Z,1.60
2023-12-09T15:42:45.364Z,1.70
2023-12-09T15:47:49.399Z,1.58
2023-12-09T15:52:54.321Z,1.70
2023-12-09T15:57:59.177Z,1.42
2023-12-09T16:03:02.816Z,1.70
2023-12-09T16:08:08.074Z,1.70
2023-12-09T16:13:11.618Z,1.63
2023-12-09T16:18:15.330Z,1.60
2023-12-09T16:23:20.288Z,1.55
2023-12-09T16:28:23.948Z,1.65
2023-12-09T16:33:27.687Z,3.70
2023-12-09T16:38:34.766Z,5.68
2023-12-09T16:43:39.574Z,5.00
2023-12-09T16:48:43.537Z,6.13
2023-12-09T16:53:48.560Z,5.25
2023-12-09T16:58:52.160Z,5.72
2023-12-09T17:03:55.784Z,4.93
2023-12-09T17:09:04.114Z,4.95
2023-12-09T17:14:08.600Z,4.45
2023-12-09T17:19:12.347Z,4.25
2023-12-09T17:24:17.341Z,4.28
2023-12-09T17:29:21.154Z,3.42
2023-12-09T17:34:24.768Z,4.45
2023-12-09T17:39:30.045Z,3.60
2023-12-09T17:44:34.653Z,4.13
2023-12-09T17:49:38.244Z,3.60
2023-12-09T17:54:43.245Z,3.58
2023-12-09T17:59:46.868Z,4.05
2023-12-09T18:04:50.404Z,3.72
2023-12-09T18:09:55.362Z,3.50
2023-12-09T18:14:58.907Z,3.60
2023-12-09T18:20:02.567Z,3.17
2023-12-09T18:25:09.136Z,3.08
2023-12-09T18:30:20.066Z,3.50
2023-12-09T18:35:24.886Z,2.90
2023-12-09T18:40:29.762Z,3.17
2023-12-09T18:45:33.328Z,2.92
2023-12-09T18:50:36.928Z,2.80
2023-12-09T18:55:41.811Z,3.40
2023-12-09T19:00:48.191Z,3.10
2023-12-09T19:05:57.096Z,3.42
2023-12-09T19:11:01.977Z,3.30
2023-12-09T19:16:07.078Z,2.50
2023-12-09T19:21:10.648Z,2.70
2023-12-09T19:26:16.499Z,2.90
2023-12-09T19:31:20.024Z,2.67
2023-12-09T19:36:23.740Z,2.60
2023-12-09T19:41:28.703Z,2.60
2023-12-09T19:46:32.269Z,2.78
2023-12-09T19:51:35.802Z,2.60
2023-12-09T19:56:40.705Z,2.80
2023-12-09T20:01:44.258Z,2.97
2023-12-09T20:06:49.225Z,3.03
2023-12-09T20:11:54.959Z,2.60
2023-12-09T20:16:58.475Z,2.50
2023-12-09T20:22:02.033Z,2.65
2023-12-09T20:27:07.548Z,2.67
2023-12-09T20:32:11.256Z,2.90
2023-12-09T20:37:14.913Z,2.47
2023-12-09T20:42:19.832Z,2.60
2023-12-09T20:47:24.013Z,2.60
2023-12-09T20:52:27.747Z,2.85
2023-12-09T20:57:32.984Z,2.90
2023-12-09T21:02:36.596Z,2.50
2023-12-09T21:07:40.187Z,2.78
2023-12-09T21:12:45.352Z,2.90
2023-12-09T21:17:48.976Z,2.92
2023-12-09T21:22:52.590Z,2.83
2023-12-09T21:27:57.505Z,2.70
2023-12-09T21:33:01.221Z,2.67
2023-12-09T21:38:04.895Z,2.83
2023-12-09T21:43:10.074Z,2.72
2023-12-09T21:48:15.988Z,2.88
2023-12-09T21:53:19.600Z,2.80
2023-12-09T21:58:24.846Z,2.50
2023-12-09T22:03:28.429Z,2.83
2023-12-09T22:08:31.970Z,3.10
2023-12-09T22:13:36.868Z,2.80
2023-12-09T22:18:40.477Z,2.80
2023-12-09T22:23:44.235Z,2.57
2023-12-09T22:28:49.164Z,2.25
2023-12-09T22:33:53.187Z,2.45
2023-12-09T22:38:56.993Z,2.25
2023-12-09T22:44:02.022Z,2.80
2023-12-09T22:49:05.747Z,3.50
2023-12-09T22:54:09.483Z,3.10
2023-12-09T22:59:14.501Z,2.70
2023-12-09T23:04:18.631Z,2.38
2023-12-09T23:09:22.229Z,2.75
2023-12-09T23:14:27.143Z,2.92
2023-12-09T23:19:31.316Z,3.00
2023-12-09T23:24:35.020Z,2.88
2023-12-09T23:29:39.997Z,2.92
2023-12-09T23:34:43.540Z,3.17
2023-12-09T23:39:47.176Z,3.40
2023-12-09T23:44:52.075Z,3.05
2023-12-09T23:49:55.596Z,3.25
2023-12-09T23:54:59.125Z,3.15
